sensor_id;sensor_type;location;lat;lon;timestamp;pressure;altitude;pressure_sealevel;temperature;humidity
18900;BME280;9582;52.018;6.306;2023-03-03T00:01:51;102265.94;;;0.70;100.00
18900;BME280;9582;52.018;6.306;2023-03-03T00:04:18;102267.66;;;0.70;100.00
18900;BME280;9582;52.018;6.306;2023-03-03T00:06:45;102265.09;;;0.71;100.00
18900;BME280;9582;52.018;6.306;2023-03-03T00:09:12;102266.78;;;0.69;100.00
18900;BME280;9582;52.018;6.306;2023-03-03T00:11:38;102266.59;;;0.60;100.00
18900;BME280;9582;52.018;6.306;2023-03-03T00:14:17;102276.69;;;0.49;100.00
18900;BME280;9582;52.018;6.306;2023-03-03T00:16:44;102276.56;;;0.42;100.00
18900;BME280;9582;52.018;6.306;2023-03-03T00:19:14;102281.72;;;0.42;100.00
18900;BME280;9582;52.018;6.306;2023-03-03T00:21:45;102286.66;;;0.33;100.00
18900;BME280;9582;52.018;6.306;2023-03-03T00:24:22;102279.78;;;0.32;100.00
18900;BME280;9582;52.018;6.306;2023-03-03T00:26:51;102272.84;;;0.29;100.00
18900;BME280;9582;52.018;6.306;2023-03-03T00:29:29;102277.13;;;0.29;100.00
18900;BME280;9582;52.018;6.306;2023-03-03T00:32:11;102274.63;;;0.32;100.00
18900;BME280;9582;52.018;6.306;2023-03-03T00:34:42;102279.75;;;0.30;100.00
18900;BME280;9582;52.018;6.306;2023-03-03T00:37:21;102281.44;;;0.30;100.00
18900;BME280;9582;52.018;6.306;2023-03-03T00:39:50;102278.91;;;0.31;100.00
18900;BME280;9582;52.018;6.306;2023-03-03T00:42:18;102282.38;;;0.33;100.00
18900;BME280;9582;52.018;6.306;2023-03-03T00:44:45;102292.75;;;0.38;100.00
18900;BME280;9582;52.018;6.306;2023-03-03T00:47:36;102289.38;;;0.39;100.00
18900;BME280;9582;52.018;6.306;2023-03-03T00:50:26;102281.56;;;0.36;100.00
18900;BME280;9582;52.018;6.306;2023-03-03T00:53:01;102279.03;;;0.37;100.00
18900;BME280;9582;52.018;6.306;2023-03-03T00:55:29;102280.69;;;0.35;100.00
18900;BME280;9582;52.018;6.306;2023-03-03T00:57:55;102279.06;;;0.39;100.00
18900;BME280;9582;52.018;6.306;2023-03-03T01:00:27;102276.63;;;0.46;100.00
18900;BME280;9582;52.018;6.306;2023-03-03T01:02:54;102280.84;;;0.43;100.00
18900;BME280;9582;52.018;6.306;2023-03-03T01:05:21;102276.56;;;0.42;100.00
18900;BME280;9582;52.018;6.306;2023-03-03T01:07:48;102286.09;;;0.47;100.00
18900;BME280;9582;52.018;6.306;2023-03-03T01:10:17;102289.50;;;0.45;100.00
18900;BME280;9582;52.018;6.306;2023-03-03T01:12:43;102284.28;;;0.43;100.00
18900;BME280;9582;52.018;6.306;2023-03-03T01:15:12;102286.91;;;0.45;100.00
18900;BME280;9582;52.018;6.306;2023-03-03T01:17:40;102288.63;;;0.44;100.00
18900;BME280;9582;52.018;6.306;2023-03-03T01:20:08;102288.63;;;0.44;100.00
18900;BME280;9582;52.018;6.306;2023-03-03T01:22:35;102282.59;;;0.44;100.00
18900;BME280;9582;52.018;6.306;2023-03-03T01:25:02;102292.88;;;0.44;100.00
18900;BME280;9582;52.018;6.306;2023-03-03T01:27:31;102297.97;;;0.42;100.00
18900;BME280;9582;52.018;6.306;2023-03-03T01:29:57;102300.56;;;0.42;100.00
18900;BME280;9582;52.018;6.306;2023-03-03T01:32:24;102299.72;;;0.42;100.00
18900;BME280;9582;52.018;6.306;2023-03-03T01:34:51;102302.34;;;0.45;100.00
18900;BME280;9582;52.018;6.306;2023-03-03T01:37:18;102295.38;;;0.39;100.00
18900;BME280;9582;52.018;6.306;2023-03-03T01:39:47;102298.78;;;0.40;100.00
18900;BME280;9582;52.018;6.306;2023-03-03T01:42:14;102303.13;;;0.41;100.00
18900;BME280;9582;52.018;6.306;2023-03-03T01:44:43;102298.03;;;0.44;100.00
18900;BME280;9582;52.018;6.306;2023-03-03T01:47:12;102309.22;;;0.46;100.00
18900;BME280;9582;52.018;6.306;2023-03-03T01:49:42;102301.59;;;0.50;100.00
18900;BME280;9582;52.018;6.306;2023-03-03T01:52:13;102304.25;;;0.53;100.00
18900;BME280;9582;52.018;6.306;2023-03-03T01:54:44;102305.94;;;0.53;100.00
18900;BME280;9582;52.018;6.306;2023-03-03T01:57:15;102308.50;;;0.53;100.00
18900;BME280;9582;52.018;6.306;2023-03-03T01:59:48;102301.63;;;0.52;100.00
18900;BME280;9582;52.018;6.306;2023-03-03T02:02:16;102310.28;;;0.55;100.00
18900;BME280;9582;52.018;6.306;2023-03-03T02:04:44;102302.56;;;0.57;100.00
18900;BME280;9582;52.018;6.306;2023-03-03T02:07:11;102307.78;;;0.60;100.00
18900;BME280;9582;52.018;6.306;2023-03-03T02:09:45;102310.34;;;0.60;100.00
18900;BME280;9582;52.018;6.306;2023-03-03T02:12:17;102315.56;;;0.63;100.00
18900;BME280;9582;52.018;6.306;2023-03-03T02:14:45;102307.84;;;0.63;100.00
18900;BME280;9582;52.018;6.306;2023-03-03T02:17:12;102311.16;;;0.57;100.00
18900;BME280;9582;52.018;6.306;2023-03-03T02:19:45;102304.44;;;0.64;100.00
18900;BME280;9582;52.018;6.306;2023-03-03T02:22:16;102314.69;;;0.61;100.00
18900;BME280;9582;52.018;6.306;2023-03-03T02:24:50;102306.91;;;0.58;100.00
18900;BME280;9582;52.018;6.306;2023-03-03T02:27:20;102318.88;;;0.57;100.00
18900;BME280;9582;52.018;6.306;2023-03-03T02:29:47;102319.84;;;0.63;100.00
18900;BME280;9582;52.018;6.306;2023-03-03T02:32:14;102316.50;;;0.67;100.00
18900;BME280;9582;52.018;6.306;2023-03-03T02:34:46;102319.81;;;0.61;100.00
18900;BME280;9582;52.018;6.306;2023-03-03T02:37:13;102314.75;;;0.64;100.00
18900;BME280;9582;52.018;6.306;2023-03-03T02:39:39;102318.28;;;0.69;100.00
18900;BME280;9582;52.018;6.306;2023-03-03T02:42:12;102319.22;;;0.74;100.00
18900;BME280;9582;52.018;6.306;2023-03-03T02:44:48;102320.06;;;0.73;100.00
18900;BME280;9582;52.018;6.306;2023-03-03T02:47:15;102308.78;;;0.67;100.00
18900;BME280;9582;52.018;6.306;2023-03-03T02:49:41;102300.31;;;0.74;100.00
18900;BME280;9582;52.018;6.306;2023-03-03T02:52:10;102310.66;;;0.75;100.00
18900;BME280;9582;52.018;6.306;2023-03-03T02:54:40;102314.13;;;0.76;100.00
18900;BME280;9582;52.018;6.306;2023-03-03T02:57:07;102315.06;;;0.82;100.00
18900;BME280;9582;52.018;6.306;2023-03-03T02:59:34;102310.75;;;0.80;100.00
18900;BME280;9582;52.018;6.306;2023-03-03T03:02:09;102327.06;;;0.80;100.00
18900;BME280;9582;52.018;6.306;2023-03-03T03:04:36;102311.72;;;0.86;100.00
18900;BME280;9582;52.018;6.306;2023-03-03T03:07:03;102320.34;;;0.88;100.00
18900;BME280;9582;52.018;6.306;2023-03-03T03:09:32;102315.19;;;0.87;100.00
18900;BME280;9582;52.018;6.306;2023-03-03T03:11:58;102318.56;;;0.84;100.00
18900;BME280;9582;52.018;6.306;2023-03-03T03:14:27;102319.50;;;0.89;100.00
18900;BME280;9582;52.018;6.306;2023-03-03T03:16:54;102321.16;;;0.86;100.00
18900;BME280;9582;52.018;6.306;2023-03-03T03:19:22;102326.38;;;0.89;100.00
18900;BME280;9582;52.018;6.306;2023-03-03T03:21:49;102328.94;;;0.87;100.00
18900;BME280;9582;52.018;6.306;2023-03-03T03:24:16;102326.44;;;0.92;100.00
18900;BME280;9582;52.018;6.306;2023-03-03T03:26:48;102320.53;;;0.99;100.00
18900;BME280;9582;52.018;6.306;2023-03-03T03:29:15;102312.78;;;0.96;100.00
18900;BME280;9582;52.018;6.306;2023-03-03T03:31:42;102318.78;;;0.96;100.00
18900;BME280;9582;52.018;6.306;2023-03-03T03:34:08;102319.00;;;1.08;100.00
18900;BME280;9582;52.018;6.306;2023-03-03T03:36:36;102315.50;;;1.05;100.00
18900;BME280;9582;52.018;6.306;2023-03-03T03:39:04;102316.47;;;1.11;100.00
18900;BME280;9582;52.018;6.306;2023-03-03T03:41:33;102315.56;;;1.08;100.00
18900;BME280;9582;52.018;6.306;2023-03-03T03:44:00;102322.47;;;1.10;100.00
18900;BME280;9582;52.018;6.306;2023-03-03T03:46:26;102315.66;;;1.12;100.00
18900;BME280;9582;52.018;6.306;2023-03-03T03:48:53;102319.06;;;1.13;100.00
18900;BME280;9582;52.018;6.306;2023-03-03T03:51:20;102317.44;;;1.16;100.00
18900;BME280;9582;52.018;6.306;2023-03-03T03:53:48;102315.72;;;1.15;100.00
18900;BME280;9582;52.018;6.306;2023-03-03T03:56:15;102322.63;;;1.20;100.00
18900;BME280;9582;52.018;6.306;2023-03-03T03:58:43;102319.25;;;1.22;100.00
18900;BME280;9582;52.018;6.306;2023-03-03T04:01:12;102314.91;;;1.18;100.00
18900;BME280;9582;52.018;6.306;2023-03-03T04:03:44;102312.25;;;1.15;100.00
18900;BME280;9582;52.018;6.306;2023-03-03T04:06:14;102312.22;;;1.13;100.00
18900;BME280;9582;52.018;6.306;2023-03-03T04:08:41;102315.66;;;1.12;100.00
18900;BME280;9582;52.018;6.306;2023-03-03T04:11:09;102309.69;;;1.15;100.00
18900;BME280;9582;52.018;6.306;2023-03-03T04:13:36;102314.84;;;1.16;100.00
18900;BME280;9582;52.018;6.306;2023-03-03T04:16:05;102319.22;;;1.21;100.00
18900;BME280;9582;52.018;6.306;2023-03-03T04:18:33;102305.47;;;1.19;100.00
18900;BME280;9582;52.018;6.306;2023-03-03T04:21:00;102317.47;;;1.20;100.00
18900;BME280;9582;52.018;6.306;2023-03-03T04:23:26;102318.34;;;1.20;100.00
18900;BME280;9582;52.018;6.306;2023-03-03T04:25:53;102315.78;;;1.22;100.00
18900;BME280;9582;52.018;6.306;2023-03-03T04:28:22;102321.84;;;1.24;100.00
18900;BME280;9582;52.018;6.306;2023-03-03T04:30:49;102315.91;;;1.28;100.00
18900;BME280;9582;52.018;6.306;2023-03-03T04:33:17;102315.00;;;1.26;100.00
18900;BME280;9582;52.018;6.306;2023-03-03T04:35:44;102309.81;;;1.23;100.00
18900;BME280;9582;52.018;6.306;2023-03-03T04:38:11;102321.06;;;1.28;100.00
18900;BME280;9582;52.018;6.306;2023-03-03T04:40:39;102315.06;;;1.29;100.00
18900;BME280;9582;52.018;6.306;2023-03-03T04:43:06;102314.16;;;1.25;100.00
18900;BME280;9582;52.018;6.306;2023-03-03T04:45:34;102318.47;;;1.28;100.00
18900;BME280;9582;52.018;6.306;2023-03-03T04:48:01;102312.44;;;1.26;100.00
18900;BME280;9582;52.018;6.306;2023-03-03T04:50:29;102321.06;;;1.28;100.00
18900;BME280;9582;52.018;6.306;2023-03-03T04:52:55;102311.56;;;1.24;100.00
18900;BME280;9582;52.018;6.306;2023-03-03T04:55:22;102319.38;;;1.30;100.00
18900;BME280;9582;52.018;6.306;2023-03-03T04:57:49;102315.94;;;1.31;100.00
18900;BME280;9582;52.018;6.306;2023-03-03T05:00:16;102317.66;;;1.29;100.00
18900;BME280;9582;52.018;6.306;2023-03-03T05:02:46;102317.66;;;1.29;100.00
18900;BME280;9582;52.018;6.306;2023-03-03T05:05:13;102317.75;;;1.35;100.00
18900;BME280;9582;52.018;6.306;2023-03-03T05:07:40;102316.06;;;1.37;100.00
18900;BME280;9582;52.018;6.306;2023-03-03T05:10:08;102319.41;;;1.33;100.00
18900;BME280;9582;52.018;6.306;2023-03-03T05:12:34;102321.09;;;1.31;100.00
18900;BME280;9582;52.018;6.306;2023-03-03T05:15:01;102326.25;;;1.31;100.00
18900;BME280;9582;52.018;6.306;2023-03-03T05:17:27;102323.75;;;1.34;100.00
18900;BME280;9582;52.018;6.306;2023-03-03T05:19:55;102325.44;;;1.33;100.00
18900;BME280;9582;52.018;6.306;2023-03-03T05:22:22;102323.78;;;1.35;100.00
18900;BME280;9582;52.018;6.306;2023-03-03T05:24:49;102317.75;;;1.35;100.00
18900;BME280;9582;52.018;6.306;2023-03-03T05:27:16;102322.91;;;1.35;100.00
18900;BME280;9582;52.018;6.306;2023-03-03T05:29:43;102320.38;;;1.38;100.00
18900;BME280;9582;52.018;6.306;2023-03-03T05:32:09;102316.09;;;1.38;100.00
18900;BME280;9582;52.018;6.306;2023-03-03T05:34:36;102324.69;;;1.39;100.00
18900;BME280;9582;52.018;6.306;2023-03-03T05:37:03;102323.84;;;1.40;100.00
18900;BME280;9582;52.018;6.306;2023-03-03T05:39:31;102328.13;;;1.39;100.00
18900;BME280;9582;52.018;6.306;2023-03-03T05:41:58;102327.25;;;1.39;100.00
18900;BME280;9582;52.018;6.306;2023-03-03T05:44:25;102325.59;;;1.42;100.00
18900;BME280;9582;52.018;6.306;2023-03-03T05:46:51;102325.59;;;1.42;100.00
18900;BME280;9582;52.018;6.306;2023-03-03T05:49:18;102337.63;;;1.42;100.00
18900;BME280;9582;52.018;6.306;2023-03-03T05:51:44;102330.81;;;1.47;100.00
18900;BME280;9582;52.018;6.306;2023-03-03T05:54:12;102337.72;;;1.46;100.00
18900;BME280;9582;52.018;6.306;2023-03-03T05:56:39;102329.06;;;1.43;100.00
18900;BME280;9582;52.018;6.306;2023-03-03T05:59:05;102330.75;;;1.42;100.00
18900;BME280;9582;52.018;6.306;2023-03-03T06:01:32;102334.97;;;1.39;100.00
18900;BME280;9582;52.018;6.306;2023-03-03T06:03:58;102336.72;;;1.40;100.00
18900;BME280;9582;52.018;6.306;2023-03-03T06:06:25;102333.22;;;1.35;100.00
18900;BME280;9582;52.018;6.306;2023-03-03T06:08:52;102343.59;;;1.38;100.00
18900;BME280;9582;52.018;6.306;2023-03-03T06:11:20;102350.41;;;1.36;100.00
18900;BME280;9582;52.018;6.306;2023-03-03T06:13:46;102344.41;;;1.35;100.00
18900;BME280;9582;52.018;6.306;2023-03-03T06:16:13;102355.53;;;1.34;100.00
18900;BME280;9582;52.018;6.306;2023-03-03T06:18:40;102350.41;;;1.36;100.00
18900;BME280;9582;52.018;6.306;2023-03-03T06:21:06;102345.25;;;1.36;100.00
18900;BME280;9582;52.018;6.306;2023-03-03T06:23:33;102354.66;;;1.34;100.00
18900;BME280;9582;52.018;6.306;2023-03-03T06:25:59;102352.09;;;1.34;100.00
18900;BME280;9582;52.018;6.306;2023-03-03T06:28:27;102356.34;;;1.32;100.00
18900;BME280;9582;52.018;6.306;2023-03-03T06:30:54;102354.72;;;1.37;100.00
18900;BME280;9582;52.018;6.306;2023-03-03T06:33:21;102354.66;;;1.34;100.00
18900;BME280;9582;52.018;6.306;2023-03-03T06:35:48;102365.84;;;1.36;100.00
18900;BME280;9582;52.018;6.306;2023-03-03T06:38:15;102362.50;;;1.40;100.00
18900;BME280;9582;52.018;6.306;2023-03-03T06:40:41;102358.22;;;1.42;100.00
18900;BME280;9582;52.018;6.306;2023-03-03T06:43:08;102356.53;;;1.42;100.00
18900;BME280;9582;52.018;6.306;2023-03-03T06:45:36;102363.34;;;1.39;100.00
18900;BME280;9582;52.018;6.306;2023-03-03T06:48:03;102361.63;;;1.39;100.00
18900;BME280;9582;52.018;6.306;2023-03-03T06:50:29;102363.28;;;1.36;100.00
18900;BME280;9582;52.018;6.306;2023-03-03T06:53:01;102368.53;;;1.42;100.00
18900;BME280;9582;52.018;6.306;2023-03-03T06:55:30;102370.25;;;1.41;100.00
18900;BME280;9582;52.018;6.306;2023-03-03T06:57:58;102369.47;;;1.44;100.00
18900;BME280;9582;52.018;6.306;2023-03-03T07:00:26;102375.47;;;1.44;100.00
18900;BME280;9582;52.018;6.306;2023-03-03T07:02:58;102371.22;;;1.46;100.00
18900;BME280;9582;52.018;6.306;2023-03-03T07:05:26;102373.00;;;1.50;100.00
18900;BME280;9582;52.018;6.306;2023-03-03T07:07:54;102377.31;;;1.51;100.00
18900;BME280;9582;52.018;6.306;2023-03-03T07:10:24;102384.22;;;1.54;100.00
18900;BME280;9582;52.018;6.306;2023-03-03T07:12:51;102381.66;;;1.55;100.00
18900;BME280;9582;52.018;6.306;2023-03-03T07:15:20;102389.44;;;1.58;100.00
18900;BME280;9582;52.018;6.306;2023-03-03T07:17:48;102387.84;;;1.63;100.00
18900;BME280;9582;52.018;6.306;2023-03-03T07:20:20;102383.53;;;1.62;100.00
18900;BME280;9582;52.018;6.306;2023-03-03T07:22:47;102391.31;;;1.65;100.00
18900;BME280;9582;52.018;6.306;2023-03-03T07:25:29;102386.97;;;1.63;100.00
18900;BME280;9582;52.018;6.306;2023-03-03T07:27:59;102403.38;;;1.66;100.00
18900;BME280;9582;52.018;6.306;2023-03-03T07:30:27;102411.09;;;1.66;100.00
18900;BME280;9582;52.018;6.306;2023-03-03T07:32:55;102409.38;;;1.67;100.00
18900;BME280;9582;52.018;6.306;2023-03-03T07:35:35;102414.53;;;1.67;100.00
18900;BME280;9582;52.018;6.306;2023-03-03T07:38:14;102418.84;;;1.68;100.00
18900;BME280;9582;52.018;6.306;2023-03-03T07:40:46;102418.91;;;1.72;100.00
18900;BME280;9582;52.018;6.306;2023-03-03T07:43:29;102419.78;;;1.73;100.00
18900;BME280;9582;52.018;6.306;2023-03-03T07:46:00;102415.56;;;1.78;100.00
18900;BME280;9582;52.018;6.306;2023-03-03T07:48:30;102417.34;;;1.81;100.00
18900;BME280;9582;52.018;6.306;2023-03-03T07:51:04;102419.16;;;1.86;100.00
18900;BME280;9582;52.018;6.306;2023-03-03T07:53:34;102420.94;;;1.90;100.00
18900;BME280;9582;52.018;6.306;2023-03-03T07:56:10;102424.38;;;1.91;100.00
18900;BME280;9582;52.018;6.306;2023-03-03T07:58:39;102427.81;;;1.90;100.00
18900;BME280;9582;52.018;6.306;2023-03-03T08:01:23;102437.34;;;1.94;100.00
18900;BME280;9582;52.018;6.306;2023-03-03T08:03:53;102435.63;;;1.94;100.00
18900;BME280;9582;52.018;6.306;2023-03-03T08:06:41;102440.09;;;2.04;100.00
18900;BME280;9582;52.018;6.306;2023-03-03T08:09:38;102441.69;;;1.98;100.00
18900;BME280;9582;52.018;6.306;2023-03-03T08:12:18;102445.34;;;2.09;100.00
18900;BME280;9582;52.018;6.306;2023-03-03T08:14:45;102445.28;;;2.07;100.00
18900;BME280;9582;52.018;6.306;2023-03-03T08:17:13;102451.38;;;2.11;100.00
18900;BME280;9582;52.018;6.306;2023-03-03T08:19:43;102447.97;;;2.13;100.00
18900;BME280;9582;52.018;6.306;2023-03-03T08:22:15;102444.50;;;2.11;100.00
18900;BME280;9582;52.018;6.306;2023-03-03T08:24:42;102455.75;;;2.16;100.00
18900;BME280;9582;52.018;6.306;2023-03-03T08:27:09;102459.22;;;2.17;100.00
18900;BME280;9582;52.018;6.306;2023-03-03T08:29:36;102460.94;;;2.18;100.00
18900;BME280;9582;52.018;6.306;2023-03-03T08:32:02;102457.47;;;2.16;100.00
18900;BME280;9582;52.018;6.306;2023-03-03T08:34:29;102465.22;;;2.17;100.00
18900;BME280;9582;52.018;6.306;2023-03-03T08:36:55;102463.47;;;2.13;100.00
18900;BME280;9582;52.018;6.306;2023-03-03T08:39:24;102455.00;;;2.23;100.00
18900;BME280;9582;52.018;6.306;2023-03-03T08:41:50;102455.91;;;2.25;100.00
18900;BME280;9582;52.018;6.306;2023-03-03T08:44:17;102460.25;;;2.28;100.00
18900;BME280;9582;52.018;6.306;2023-03-03T08:46:44;102462.91;;;2.32;100.00
18900;BME280;9582;52.018;6.306;2023-03-03T08:49:11;102456.91;;;2.33;100.00
18900;BME280;9582;52.018;6.306;2023-03-03T08:51:37;102458.66;;;2.38;100.00
18900;BME280;9582;52.018;6.306;2023-03-03T08:54:04;102471.66;;;2.42;100.00
18900;BME280;9582;52.018;6.306;2023-03-03T08:56:32;102463.13;;;2.48;100.00
18900;BME280;9582;52.018;6.306;2023-03-03T08:58:58;102460.53;;;2.48;100.00
18900;BME280;9582;52.018;6.306;2023-03-03T09:01:25;102467.47;;;2.52;100.00
18900;BME280;9582;52.018;6.306;2023-03-03T09:03:51;102462.34;;;2.55;100.00
18900;BME280;9582;52.018;6.306;2023-03-03T09:06:18;102460.69;;;2.57;100.00
18900;BME280;9582;52.018;6.306;2023-03-03T09:08:44;102471.94;;;2.63;100.00
18900;BME280;9582;52.018;6.306;2023-03-03T09:11:12;102466.00;;;2.69;100.00
18900;BME280;9582;52.018;6.306;2023-03-03T09:13:40;102474.47;;;2.59;100.00
18900;BME280;9582;52.018;6.306;2023-03-03T09:16:12;102470.34;;;2.71;100.00
18900;BME280;9582;52.018;6.306;2023-03-03T09:18:39;102466.03;;;2.72;100.00
18900;BME280;9582;52.018;6.306;2023-03-03T09:21:19;102454.91;;;2.76;100.00
18900;BME280;9582;52.018;6.306;2023-03-03T09:23:52;102461.19;;;2.93;100.00
18900;BME280;9582;52.018;6.306;2023-03-03T09:26:25;102456.94;;;3.00;100.00
18900;BME280;9582;52.018;6.306;2023-03-03T09:29:00;102465.56;;;3.00;100.00
18900;BME280;9582;52.018;6.306;2023-03-03T09:31:38;102455.19;;;2.97;100.00
18900;BME280;9582;52.018;6.306;2023-03-03T09:34:15;102459.72;;;3.13;100.00
18900;BME280;9582;52.018;6.306;2023-03-03T09:36:44;102457.97;;;3.14;100.00
18900;BME280;9582;52.018;6.306;2023-03-03T09:39:16;102462.28;;;3.16;100.00
18900;BME280;9582;52.018;6.306;2023-03-03T09:44:55;102467.81;;;3.43;100.00
18900;BME280;9582;52.018;6.306;2023-03-03T09:47:37;102469.47;;;3.38;100.00
18900;BME280;9582;52.018;6.306;2023-03-03T09:50:15;102478.09;;;3.40;100.00
18900;BME280;9582;52.018;6.306;2023-03-03T09:52:51;102464.19;;;3.29;100.00
18900;BME280;9582;52.018;6.306;2023-03-03T09:55:33;102471.13;;;3.32;100.00
18900;BME280;9582;52.018;6.306;2023-03-03T09:58:12;102477.31;;;3.47;100.00
18900;BME280;9582;52.018;6.306;2023-03-03T10:00:54;102480.81;;;3.51;100.00
18900;BME280;9582;52.018;6.306;2023-03-03T10:03:57;102473.03;;;3.51;100.00
18900;BME280;9582;52.018;6.306;2023-03-03T10:06:27;102475.66;;;3.53;100.00
18900;BME280;9582;52.018;6.306;2023-03-03T10:09:30;102483.38;;;3.49;100.00
18900;BME280;9582;52.018;6.306;2023-03-03T10:12:04;102486.81;;;3.47;100.00
18900;BME280;9582;52.018;6.306;2023-03-03T10:14:55;102484.28;;;3.55;100.00
18900;BME280;9582;52.018;6.306;2023-03-03T10:17:36;102479.97;;;3.52;100.00
18900;BME280;9582;52.018;6.306;2023-03-03T10:20:22;102481.72;;;3.55;100.00
18900;BME280;9582;52.018;6.306;2023-03-03T10:22:52;102482.66;;;3.61;100.00
18900;BME280;9582;52.018;6.306;2023-03-03T10:25:26;102476.59;;;3.61;100.00
18900;BME280;9582;52.018;6.306;2023-03-03T10:28:04;102468.00;;;3.63;100.00
18900;BME280;9582;52.018;6.306;2023-03-03T10:30:40;102478.41;;;3.69;100.00
18900;BME280;9582;52.018;6.306;2023-03-03T10:33:18;102482.00;;;3.83;100.00
18900;BME280;9582;52.018;6.306;2023-03-03T10:36:03;102474.22;;;3.82;100.00
18900;BME280;9582;52.018;6.306;2023-03-03T10:38:44;102478.59;;;3.89;100.00
18900;BME280;9582;52.018;6.306;2023-03-03T10:41:25;102479.44;;;3.88;100.00
18900;BME280;9582;52.018;6.306;2023-03-03T10:44:06;102478.50;;;3.80;100.00
18900;BME280;9582;52.018;6.306;2023-03-03T10:46:45;102473.28;;;3.74;100.00
18900;BME280;9582;52.018;6.306;2023-03-03T10:49:29;102470.69;;;3.74;100.00
18900;BME280;9582;52.018;6.306;2023-03-03T10:52:30;102467.16;;;3.66;100.00
18900;BME280;9582;52.018;6.306;2023-03-03T10:55:18;102463.78;;;3.70;100.00
18900;BME280;9582;52.018;6.306;2023-03-03T10:57:54;102476.66;;;3.67;100.00
18900;BME280;9582;52.018;6.306;2023-03-03T11:00:30;102468.91;;;3.67;100.00
18900;BME280;9582;52.018;6.306;2023-03-03T11:03:35;102471.50;;;3.67;100.00
18900;BME280;9582;52.018;6.306;2023-03-03T11:06:11;102463.00;;;3.84;100.00
18900;BME280;9582;52.018;6.306;2023-03-03T11:08:42;102457.91;;;3.90;100.00
18900;BME280;9582;52.018;6.306;2023-03-03T11:11:16;102456.34;;;4.11;100.00
18900;BME280;9582;52.018;6.306;2023-03-03T11:13:49;102447.84;;;4.30;100.00
18900;BME280;9582;52.018;6.306;2023-03-03T11:16:49;102453.09;;;4.37;100.00
18900;BME280;9582;52.018;6.306;2023-03-03T11:19:33;102446.09;;;4.27;100.00
18900;BME280;9582;52.018;6.306;2023-03-03T11:22:13;102435.72;;;4.24;100.00
18900;BME280;9582;52.018;6.306;2023-03-03T11:24:53;102437.53;;;4.36;100.00
18900;BME280;9582;52.018;6.306;2023-03-03T11:27:30;102437.50;;;4.33;100.00
18900;BME280;9582;52.018;6.306;2023-03-03T11:30:05;102433.28;;;4.42;100.00
18900;BME280;9582;52.018;6.306;2023-03-03T11:32:39;102429.03;;;4.53;100.00
18900;BME280;9582;52.018;6.306;2023-03-03T11:35:18;102428.22;;;4.66;100.00
18900;BME280;9582;52.018;6.306;2023-03-03T11:37:56;102423.09;;;4.79;100.00
18900;BME280;9582;52.018;6.306;2023-03-03T11:40:26;102415.34;;;4.86;100.00
18900;BME280;9582;52.018;6.306;2023-03-03T11:43:00;102423.16;;;4.97;100.00
18900;BME280;9582;52.018;6.306;2023-03-03T11:45:34;102418.91;;;5.08;100.00
18900;BME280;9582;52.018;6.306;2023-03-03T11:48:07;102410.28;;;5.18;100.00
18900;BME280;9582;52.018;6.306;2023-03-03T11:50:42;102412.00;;;5.20;100.00
18900;BME280;9582;52.018;6.306;2023-03-03T11:53:24;102406.84;;;5.19;100.00
18900;BME280;9582;52.018;6.306;2023-03-03T11:55:56;102397.34;;;5.27;100.00
18900;BME280;9582;52.018;6.306;2023-03-03T11:58:29;102408.63;;;5.44;100.00
18900;BME280;9582;52.018;6.306;2023-03-03T12:01:00;102401.69;;;5.45;100.00
18900;BME280;9582;52.018;6.306;2023-03-03T12:03:33;102399.97;;;5.62;100.00
18900;BME280;9582;52.018;6.306;2023-03-03T12:06:16;102391.34;;;5.78;100.00
18900;BME280;9582;52.018;6.306;2023-03-03T12:09:25;102393.06;;;5.82;100.00
18900;BME280;9582;52.018;6.306;2023-03-03T12:11:56;102391.34;;;5.99;100.00
18900;BME280;9582;52.018;6.306;2023-03-03T12:14:38;102388.75;;;6.05;100.00
18900;BME280;9582;52.018;6.306;2023-03-03T12:17:18;102395.69;;;6.11;100.00
18900;BME280;9582;52.018;6.306;2023-03-03T12:19:56;102391.34;;;5.99;100.00
18900;BME280;9582;52.018;6.306;2023-03-03T12:22:31;102391.38;;;6.01;100.00
18900;BME280;9582;52.018;6.306;2023-03-03T12:25:13;102395.69;;;6.11;100.00
18900;BME280;9582;52.018;6.306;2023-03-03T12:27:48;102388.72;;;6.19;100.00
18900;BME280;9582;52.018;6.306;2023-03-03T12:30:22;102388.72;;;6.22;100.00
18900;BME280;9582;52.018;6.306;2023-03-03T12:33:10;102386.09;;;6.35;100.00
18900;BME280;9582;52.018;6.306;2023-03-03T12:35:42;102380.00;;;6.47;100.00
18900;BME280;9582;52.018;6.306;2023-03-03T12:38:21;102376.53;;;6.51;100.00
18900;BME280;9582;52.018;6.306;2023-03-03T12:40:58;102381.75;;;6.45;100.00
18900;BME280;9582;52.018;6.306;2023-03-03T12:43:51;102381.72;;;6.50;100.00
18900;BME280;9582;52.018;6.306;2023-03-03T12:46:21;102379.97;;;6.61;100.00
18900;BME280;9582;52.018;6.306;2023-03-03T12:48:50;102379.88;;;6.85;100.00
18900;BME280;9582;52.018;6.306;2023-03-03T12:51:27;102372.78;;;7.16;100.00
18900;BME280;9582;52.018;6.306;2023-03-03T12:54:13;102363.84;;;7.51;100.00
18900;BME280;9582;52.018;6.306;2023-03-03T12:56:48;102367.31;;;7.53;100.00
18900;BME280;9582;52.018;6.306;2023-03-03T12:59:24;102363.72;;;7.65;100.00
18900;BME280;9582;52.018;6.306;2023-03-03T13:02:28;102359.28;;;7.79;100.00
18900;BME280;9582;52.018;6.306;2023-03-03T13:05:04;102372.44;;;7.64;100.00
18900;BME280;9582;52.018;6.306;2023-03-03T13:07:40;102375.19;;;7.40;100.00
18900;BME280;9582;52.018;6.306;2023-03-03T13:10:15;102381.41;;;7.21;100.00
18900;BME280;9582;52.018;6.306;2023-03-03T13:12:48;102371.97;;;7.08;100.00
18900;BME280;9582;52.018;6.306;2023-03-03T13:15:21;102376.25;;;7.12;100.00
18900;BME280;9582;52.018;6.306;2023-03-03T13:17:59;102377.94;;;7.25;100.00
18900;BME280;9582;52.018;6.306;2023-03-03T13:20:38;102372.59;;;7.41;100.00
18900;BME280;9582;52.018;6.306;2023-03-03T13:23:09;102372.44;;;7.64;100.00
18900;BME280;9582;52.018;6.306;2023-03-03T13:25:48;102364.59;;;7.67;100.00
18900;BME280;9582;52.018;6.306;2023-03-03T13:28:26;102369.06;;;7.53;100.00